sensor_id;sensor_type;location;lat;lon;timestamp;pressure;altitude;pressure_sealevel;temperature;humidity
2549;BME280;1284;53.520;10.248;2023-08-08T00:00:54;100106.00;;;17.07;79.20
2549;BME280;1284;53.520;10.248;2023-08-08T00:03:19;100119.25;;;17.05;80.58
2549;BME280;1284;53.520;10.248;2023-08-08T00:05:45;100121.63;;;16.99;82.54
2549;BME280;1284;53.520;10.248;2023-08-08T00:08:10;100108.97;;;16.89;82.99
2549;BME280;1284;53.520;10.248;2023-08-08T00:10:36;100111.69;;;16.89;83.92
2549;BME280;1284;53.520;10.248;2023-08-08T00:13:01;100099.84;;;16.73;84.80
2549;BME280;1284;53.520;10.248;2023-08-08T00:15:26;100099.06;;;16.76;85.23
2549;BME280;1284;53.520;10.248;2023-08-08T00:17:52;100099.56;;;16.67;85.12
2549;BME280;1284;53.520;10.248;2023-08-08T00:20:17;100111.81;;;16.79;85.41
2549;BME280;1284;53.520;10.248;2023-08-08T00:22:42;100110.38;;;16.71;85.51
2549;BME280;1284;53.520;10.248;2023-08-08T00:25:08;100108.53;;;16.64;86.23
2549;BME280;1284;53.520;10.248;2023-08-08T00:27:34;100092.66;;;16.59;86.31
2549;BME280;1284;53.520;10.248;2023-08-08T00:30:00;100088.00;;;16.60;86.21
2549;BME280;1284;53.520;10.248;2023-08-08T00:32:25;100104.00;;;16.54;86.70
2549;BME280;1284;53.520;10.248;2023-08-08T00:34:51;100099.19;;;16.65;86.86
2549;BME280;1284;53.520;10.248;2023-08-08T00:37:16;100093.84;;;16.58;86.92
2549;BME280;1284;53.520;10.248;2023-08-08T00:39:42;100095.78;;;16.58;86.91
2549;BME280;1284;53.520;10.248;2023-08-08T00:42:14;100088.09;;;16.53;87.42
2549;BME280;1284;53.520;10.248;2023-08-08T00:44:39;100104.38;;;16.56;87.43
2549;BME280;1284;53.520;10.248;2023-08-08T00:47:08;100103.69;;;16.49;88.28
2549;BME280;1284;53.520;10.248;2023-08-08T00:49:34;100104.56;;;16.39;89.34
2549;BME280;1284;53.520;10.248;2023-08-08T00:51:59;100093.59;;;16.46;88.83
2549;BME280;1284;53.520;10.248;2023-08-08T00:54:26;100095.16;;;16.47;88.60
2549;BME280;1284;53.520;10.248;2023-08-08T00:56:51;100089.03;;;16.36;89.54
2549;BME280;1284;53.520;10.248;2023-08-08T00:59:18;100091.06;;;16.32;90.01
2549;BME280;1284;53.520;10.248;2023-08-08T01:01:44;100071.88;;;16.42;89.15
2549;BME280;1284;53.520;10.248;2023-08-08T01:04:11;100075.88;;;16.34;90.22
2549;BME280;1284;53.520;10.248;2023-08-08T01:09:32;100069.09;;;16.49;88.90
2549;BME280;1284;53.520;10.248;2023-08-08T01:11:59;100062.59;;;16.40;89.24
2549;BME280;1284;53.520;10.248;2023-08-08T01:14:28;100063.97;;;16.24;90.09
2549;BME280;1284;53.520;10.248;2023-08-08T01:16:55;100060.09;;;16.25;89.78
2549;BME280;1284;53.520;10.248;2023-08-08T01:19:30;100063.53;;;16.26;90.00
2549;BME280;1284;53.520;10.248;2023-08-08T01:22:02;100060.41;;;16.31;90.29
2549;BME280;1284;53.520;10.248;2023-08-08T01:24:30;100065.06;;;16.31;90.36
2549;BME280;1284;53.520;10.248;2023-08-08T01:26:59;100069.75;;;16.26;90.42
2549;BME280;1284;53.520;10.248;2023-08-08T01:29:26;100068.25;;;16.22;90.37
2549;BME280;1284;53.520;10.248;2023-08-08T01:31:52;100062.13;;;16.14;91.82
2549;BME280;1284;53.520;10.248;2023-08-08T01:34:18;100055.75;;;16.32;91.15
2549;BME280;1284;53.520;10.248;2023-08-08T01:36:55;100060.34;;;16.35;90.90
2549;BME280;1284;53.520;10.248;2023-08-08T01:39:30;100060.66;;;16.40;90.48
2549;BME280;1284;53.520;10.248;2023-08-08T01:41:59;100042.53;;;16.30;90.96
2549;BME280;1284;53.520;10.248;2023-08-08T01:44:25;100052.97;;;16.35;90.44
2549;BME280;1284;53.520;10.248;2023-08-08T01:46:54;100044.09;;;16.31;90.76
2549;BME280;1284;53.520;10.248;2023-08-08T01:49:20;100052.25;;;16.31;90.75
2549;BME280;1284;53.520;10.248;2023-08-08T01:51:46;100048.28;;;16.36;90.70
2549;BME280;1284;53.520;10.248;2023-08-08T01:54:12;100056.09;;;16.34;90.90
2549;BME280;1284;53.520;10.248;2023-08-08T01:56:37;100054.97;;;16.31;91.08
2549;BME280;1284;53.520;10.248;2023-08-08T01:59:02;100051.78;;;16.36;91.32
2549;BME280;1284;53.520;10.248;2023-08-08T02:01:28;100052.56;;;16.37;90.50
2549;BME280;1284;53.520;10.248;2023-08-08T02:03:53;100044.53;;;16.26;90.57
2549;BME280;1284;53.520;10.248;2023-08-08T02:06:19;100040.91;;;16.36;90.30
2549;BME280;1284;53.520;10.248;2023-08-08T02:08:45;100041.25;;;16.38;90.79
2549;BME280;1284;53.520;10.248;2023-08-08T02:11:10;100037.50;;;16.28;90.86
2549;BME280;1284;53.520;10.248;2023-08-08T02:13:36;100032.06;;;16.28;90.74
2549;BME280;1284;53.520;10.248;2023-08-08T02:16:01;100037.78;;;16.38;89.75
2549;BME280;1284;53.520;10.248;2023-08-08T02:18:26;100033.28;;;16.27;90.59
2549;BME280;1284;53.520;10.248;2023-08-08T02:20:52;100035.25;;;16.23;90.50
2549;BME280;1284;53.520;10.248;2023-08-08T02:23:17;100037.16;;;16.26;90.35
2549;BME280;1284;53.520;10.248;2023-08-08T02:25:43;100025.47;;;16.30;90.02
2549;BME280;1284;53.520;10.248;2023-08-08T02:28:09;100029.16;;;16.12;90.54
2549;BME280;1284;53.520;10.248;2023-08-08T02:30:35;100030.34;;;16.11;90.55
2549;BME280;1284;53.520;10.248;2023-08-08T02:33:00;100025.47;;;16.30;89.51
2549;BME280;1284;53.520;10.248;2023-08-08T02:35:25;100018.38;;;16.36;88.41
2549;BME280;1284;53.520;10.248;2023-08-08T02:37:51;100019.00;;;16.20;89.08
2549;BME280;1284;53.520;10.248;2023-08-08T02:40:16;100025.69;;;16.12;89.71
2549;BME280;1284;53.520;10.248;2023-08-08T02:42:42;100019.50;;;16.11;89.72
2549;BME280;1284;53.520;10.248;2023-08-08T02:45:08;100019.38;;;16.18;89.37
2549;BME280;1284;53.520;10.248;2023-08-08T02:47:34;100023.56;;;16.26;89.23
2549;BME280;1284;53.520;10.248;2023-08-08T02:49:59;100022.84;;;16.22;89.70
2549;BME280;1284;53.520;10.248;2023-08-08T02:52:25;100023.25;;;16.21;89.73
2549;BME280;1284;53.520;10.248;2023-08-08T02:54:51;100025.78;;;16.35;89.10
2549;BME280;1284;53.520;10.248;2023-08-08T02:57:16;100017.31;;;16.30;89.33
2549;BME280;1284;53.520;10.248;2023-08-08T02:59:43;100014.25;;;16.27;89.98
2549;BME280;1284;53.520;10.248;2023-08-08T03:02:08;100027.72;;;16.35;89.29
2549;BME280;1284;53.520;10.248;2023-08-08T03:04:35;100027.38;;;16.33;89.66
2549;BME280;1284;53.520;10.248;2023-08-08T03:07:02;100022.28;;;16.35;88.81
2549;BME280;1284;53.520;10.248;2023-08-08T03:09:30;100014.72;;;16.19;89.38
2549;BME280;1284;53.520;10.248;2023-08-08T03:11:56;100011.72;;;16.13;90.00
2549;BME280;1284;53.520;10.248;2023-08-08T03:14:21;100013.59;;;16.16;89.61
2549;BME280;1284;53.520;10.248;2023-08-08T03:16:47;100003.19;;;16.11;90.11
2549;BME280;1284;53.520;10.248;2023-08-08T03:19:12;100010.56;;;16.11;90.19
2549;BME280;1284;53.520;10.248;2023-08-08T03:21:38;100003.91;;;16.15;90.67
2549;BME280;1284;53.520;10.248;2023-08-08T03:24:07;100000.69;;;16.24;90.04
2549;BME280;1284;53.520;10.248;2023-08-08T03:26:33;100003.38;;;16.27;89.71
2549;BME280;1284;53.520;10.248;2023-08-08T03:28:58;100000.66;;;16.27;89.63
2549;BME280;1284;53.520;10.248;2023-08-08T03:31:31;99998.31;;;16.30;89.70
2549;BME280;1284;53.520;10.248;2023-08-08T03:33:56;99995.59;;;16.26;89.27
2549;BME280;1284;53.520;10.248;2023-08-08T03:36:22;99999.66;;;16.14;90.21
2549;BME280;1284;53.520;10.248;2023-08-08T03:38:48;99991.38;;;16.25;89.80
2549;BME280;1284;53.520;10.248;2023-08-08T03:41:13;100007.31;;;16.23;89.74
2549;BME280;1284;53.520;10.248;2023-08-08T03:43:40;99989.38;;;16.29;89.34
2549;BME280;1284;53.520;10.248;2023-08-08T03:46:06;99996.13;;;16.17;89.61
2549;BME280;1284;53.520;10.248;2023-08-08T03:48:31;99986.06;;;16.14;90.29
2549;BME280;1284;53.520;10.248;2023-08-08T03:50:57;99995.78;;;16.15;90.51
2549;BME280;1284;53.520;10.248;2023-08-08T03:53:23;99999.06;;;16.30;89.62
2549;BME280;1284;53.520;10.248;2023-08-08T03:55:48;100009.63;;;16.24;90.18
2549;BME280;1284;53.520;10.248;2023-08-08T03:58:15;100001.81;;;16.26;90.55
2549;BME280;1284;53.520;10.248;2023-08-08T04:00:41;99990.88;;;16.34;90.10
2549;BME280;1284;53.520;10.248;2023-08-08T04:03:15;99985.78;;;16.36;90.44
2549;BME280;1284;53.520;10.248;2023-08-08T04:05:44;99988.84;;;16.38;90.70
2549;BME280;1284;53.520;10.248;2023-08-08T04:08:17;100000.84;;;16.40;90.13
2549;BME280;1284;53.520;10.248;2023-08-08T04:10:46;100001.31;;;16.35;90.87
2549;BME280;1284;53.520;10.248;2023-08-08T04:13:12;100000.91;;;16.37;90.61
2549;BME280;1284;53.520;10.248;2023-08-08T04:15:37;99984.59;;;16.37;90.58
2549;BME280;1284;53.520;10.248;2023-08-08T04:18:03;99992.25;;;16.45;90.42
2549;BME280;1284;53.520;10.248;2023-08-08T04:20:32;99991.53;;;16.41;90.50
2549;BME280;1284;53.520;10.248;2023-08-08T04:22:57;99998.13;;;16.40;89.87
2549;BME280;1284;53.520;10.248;2023-08-08T04:25:22;100002.81;;;16.40;90.14
2549;BME280;1284;53.520;10.248;2023-08-08T04:27:48;99993.19;;;16.35;90.06
2549;BME280;1284;53.520;10.248;2023-08-08T04:30:13;99982.66;;;16.37;89.95
2549;BME280;1284;53.520;10.248;2023-08-08T04:32:39;99992.34;;;16.38;90.00
2549;BME280;1284;53.520;10.248;2023-08-08T04:35:04;99997.00;;;16.38;89.46
2549;BME280;1284;53.520;10.248;2023-08-08T04:37:30;99995.53;;;16.33;89.64
2549;BME280;1284;53.520;10.248;2023-08-08T04:39:55;99996.97;;;16.41;89.59
2549;BME280;1284;53.520;10.248;2023-08-08T04:42:21;100009.38;;;16.42;89.00
2549;BME280;1284;53.520;10.248;2023-08-08T04:44:46;99997.38;;;16.40;89.44
2549;BME280;1284;53.520;10.248;2023-08-08T04:47:11;100006.28;;;16.40;89.49
2549;BME280;1284;53.520;10.248;2023-08-08T04:49:37;99989.63;;;16.38;88.75
2549;BME280;1284;53.520;10.248;2023-08-08T04:52:02;99998.97;;;16.37;89.20
2549;BME280;1284;53.520;10.248;2023-08-08T04:54:31;99991.97;;;16.36;88.99
2549;BME280;1284;53.520;10.248;2023-08-08T04:56:56;99999.63;;;16.45;88.37
2549;BME280;1284;53.520;10.248;2023-08-08T04:59:23;99986.50;;;16.40;89.12
2549;BME280;1284;53.520;10.248;2023-08-08T05:01:48;99992.66;;;16.44;88.69
2549;BME280;1284;53.520;10.248;2023-08-08T05:04:14;99986.75;;;16.52;88.82
2549;BME280;1284;53.520;10.248;2023-08-08T05:06:39;99988.34;;;16.46;88.48
2549;BME280;1284;53.520;10.248;2023-08-08T05:09:04;99989.47;;;16.52;88.23
2549;BME280;1284;53.520;10.248;2023-08-08T05:11:30;99987.53;;;16.53;88.04
2549;BME280;1284;53.520;10.248;2023-08-08T05:13:55;99984.81;;;16.49;87.65
2549;BME280;1284;53.520;10.248;2023-08-08T05:16:21;99985.19;;;16.51;87.67
2549;BME280;1284;53.520;10.248;2023-08-08T05:18:47;99986.69;;;16.56;87.22
2549;BME280;1284;53.520;10.248;2023-08-08T05:21:13;99982.03;;;16.56;87.54
2549;BME280;1284;53.520;10.248;2023-08-08T05:23:38;99984.91;;;16.69;86.80
2549;BME280;1284;53.520;10.248;2023-08-08T05:26:04;99979.91;;;16.67;87.19
2549;BME280;1284;53.520;10.248;2023-08-08T05:28:29;99983.94;;;16.82;87.01
2549;BME280;1284;53.520;10.248;2023-08-08T05:30:55;99983.06;;;16.89;86.56
2549;BME280;1284;53.520;10.248;2023-08-08T05:33:22;99973.25;;;16.95;87.15
2549;BME280;1284;53.520;10.248;2023-08-08T05:35:47;99974.19;;;17.08;86.80
2549;BME280;1284;53.520;10.248;2023-08-08T05:38:13;99980.19;;;17.19;86.36
2549;BME280;1284;53.520;10.248;2023-08-08T05:40:38;99974.44;;;17.37;85.70
2549;BME280;1284;53.520;10.248;2023-08-08T05:43:04;99973.09;;;17.68;85.71
2549;BME280;1284;53.520;10.248;2023-08-08T05:45:29;99982.53;;;17.83;85.01
2549;BME280;1284;53.520;10.248;2023-08-08T05:47:55;99974.28;;;17.86;83.78
2549;BME280;1284;53.520;10.248;2023-08-08T05:50:21;99966.84;;;18.07;82.89
2549;BME280;1284;53.520;10.248;2023-08-08T05:52:47;99974.91;;;18.30;80.27
2549;BME280;1284;53.520;10.248;2023-08-08T05:55:13;99979.53;;;18.33;79.95
2549;BME280;1284;53.520;10.248;2023-08-08T05:57:38;99989.31;;;18.50;80.25
2549;BME280;1284;53.520;10.248;2023-08-08T06:00:04;99990.19;;;18.79;79.50
2549;BME280;1284;53.520;10.248;2023-08-08T06:02:38;99992.88;;;18.95;78.75
2549;BME280;1284;53.520;10.248;2023-08-08T06:05:04;99979.56;;;19.13;77.55
2549;BME280;1284;53.520;10.248;2023-08-08T06:07:30;99983.41;;;19.16;76.94
2549;BME280;1284;53.520;10.248;2023-08-08T06:09:56;99995.34;;;19.22;75.41
2549;BME280;1284;53.520;10.248;2023-08-08T06:12:21;99987.75;;;19.13;75.45
2549;BME280;1284;53.520;10.248;2023-08-08T06:14:46;99990.38;;;19.17;75.86
2549;BME280;1284;53.520;10.248;2023-08-08T06:22:44;99986.06;;;19.03;76.15
2549;BME280;1284;53.520;10.248;2023-08-08T06:25:09;99982.16;;;18.88;76.28
2549;BME280;1284;53.520;10.248;2023-08-08T06:27:36;99985.47;;;18.63;77.86
2549;BME280;1284;53.520;10.248;2023-08-08T06:30:01;99993.75;;;18.60;78.12
2549;BME280;1284;53.520;10.248;2023-08-08T06:32:28;99984.00;;;18.59;78.17
2549;BME280;1284;53.520;10.248;2023-08-08T06:34:53;99993.56;;;18.51;78.51
2549;BME280;1284;53.520;10.248;2023-08-08T06:37:20;99992.84;;;18.47;78.23
2549;BME280;1284;53.520;10.248;2023-08-08T06:39:45;99988.59;;;18.46;79.27
2549;BME280;1284;53.520;10.248;2023-08-08T06:42:11;99990.25;;;18.75;78.92
2549;BME280;1284;53.520;10.248;2023-08-08T06:44:49;99990.84;;;18.83;78.58
2549;BME280;1284;53.520;10.248;2023-08-08T06:47:15;99994.44;;;18.96;78.34
2549;BME280;1284;53.520;10.248;2023-08-08T06:49:40;99987.94;;;19.06;78.96
2549;BME280;1284;53.520;10.248;2023-08-08T06:52:06;99970.25;;;19.43;77.58
2549;BME280;1284;53.520;10.248;2023-08-08T06:54:32;99988.78;;;19.64;75.54
2549;BME280;1284;53.520;10.248;2023-08-08T06:56:58;99985.28;;;19.63;74.31
2549;BME280;1284;53.520;10.248;2023-08-08T06:59:23;99973.44;;;19.54;73.79
2549;BME280;1284;53.520;10.248;2023-08-08T07:01:50;99988.34;;;19.37;74.50
2549;BME280;1284;53.520;10.248;2023-08-08T07:04:16;99990.22;;;19.24;75.01
2549;BME280;1284;53.520;10.248;2023-08-08T07:06:43;99987.75;;;19.29;75.48
2549;BME280;1284;53.520;10.248;2023-08-08T07:11:55;99976.03;;;19.73;75.30
2549;BME280;1284;53.520;10.248;2023-08-08T07:14:21;99980.47;;;20.09;73.81
2549;BME280;1284;53.520;10.248;2023-08-08T07:16:47;99972.75;;;20.20;72.30
2549;BME280;1284;53.520;10.248;2023-08-08T07:19:13;99977.84;;;20.18;71.09
2549;BME280;1284;53.520;10.248;2023-08-08T07:21:39;99969.66;;;20.05;71.19
2549;BME280;1284;53.520;10.248;2023-08-08T07:24:04;99978.69;;;19.90;72.24
2549;BME280;1284;53.520;10.248;2023-08-08T07:26:30;99970.25;;;19.84;72.51
2549;BME280;1284;53.520;10.248;2023-08-08T07:28:55;99983.59;;;19.82;72.35
2549;BME280;1284;53.520;10.248;2023-08-08T07:31:21;99964.72;;;20.13;70.54
2549;BME280;1284;53.520;10.248;2023-08-08T07:33:46;99962.69;;;20.29;71.08
2549;BME280;1284;53.520;10.248;2023-08-08T07:36:11;99970.78;;;20.58;70.44
2549;BME280;1284;53.520;10.248;2023-08-08T07:38:37;99952.06;;;20.69;70.20
2549;BME280;1284;53.520;10.248;2023-08-08T07:41:03;99953.13;;;20.84;69.54
2549;BME280;1284;53.520;10.248;2023-08-08T07:43:29;99951.63;;;21.17;69.26
2549;BME280;1284;53.520;10.248;2023-08-08T07:45:54;99946.94;;;21.39;67.00
2549;BME280;1284;53.520;10.248;2023-08-08T07:48:19;99946.25;;;21.48;66.24
2549;BME280;1284;53.520;10.248;2023-08-08T07:50:45;99949.94;;;21.54;66.08
2549;BME280;1284;53.520;10.248;2023-08-08T07:53:10;99953.50;;;21.64;64.55
2549;BME280;1284;53.520;10.248;2023-08-08T07:55:36;99945.59;;;21.66;65.20
2549;BME280;1284;53.520;10.248;2023-08-08T07:58:01;99954.47;;;21.70;65.60
2549;BME280;1284;53.520;10.248;2023-08-08T08:00:27;99951.22;;;21.84;64.66
2549;BME280;1284;53.520;10.248;2023-08-08T08:02:52;99951.91;;;21.97;63.88
2549;BME280;1284;53.520;10.248;2023-08-08T08:05:18;99948.97;;;21.91;63.89
2549;BME280;1284;53.520;10.248;2023-08-08T08:07:43;99945.16;;;21.89;64.42
2549;BME280;1284;53.520;10.248;2023-08-08T08:10:11;99940.56;;;21.86;64.33
2549;BME280;1284;53.520;10.248;2023-08-08T08:12:39;99939.84;;;21.73;63.98
2549;BME280;1284;53.520;10.248;2023-08-08T08:15:05;99932.09;;;21.49;64.90
2549;BME280;1284;53.520;10.248;2023-08-08T08:17:31;99933.00;;;21.46;64.32
2549;BME280;1284;53.520;10.248;2023-08-08T08:19:57;99930.69;;;21.23;65.14
2549;BME280;1284;53.520;10.248;2023-08-08T08:22:23;99925.19;;;21.02;66.57
2549;BME280;1284;53.520;10.248;2023-08-08T08:24:48;99926.25;;;21.04;67.57
2549;BME280;1284;53.520;10.248;2023-08-08T08:27:13;99935.25;;;20.92;68.48
2549;BME280;1284;53.520;10.248;2023-08-08T08:29:39;99933.22;;;20.71;69.72
2549;BME280;1284;53.520;10.248;2023-08-08T08:32:05;99926.50;;;20.85;69.70
2549;BME280;1284;53.520;10.248;2023-08-08T08:34:30;99936.81;;;20.81;69.23
2549;BME280;1284;53.520;10.248;2023-08-08T08:36:56;99939.31;;;20.75;68.92
2549;BME280;1284;53.520;10.248;2023-08-08T08:39:22;99941.97;;;20.66;68.23
2549;BME280;1284;53.520;10.248;2023-08-08T08:41:49;99944.19;;;20.46;68.76
2549;BME280;1284;53.520;10.248;2023-08-08T08:44:17;99956.00;;;20.43;69.12
2549;BME280;1284;53.520;10.248;2023-08-08T08:46:47;99961.38;;;20.34;69.32
2549;BME280;1284;53.520;10.248;2023-08-08T08:49:14;99954.38;;;20.33;69.41
2549;BME280;1284;53.520;10.248;2023-08-08T08:51:41;99973.53;;;20.20;70.39
2549;BME280;1284;53.520;10.248;2023-08-08T08:54:07;99969.03;;;20.26;70.28
2549;BME280;1284;53.520;10.248;2023-08-08T08:56:33;99970.78;;;20.20;70.85
2549;BME280;1284;53.520;10.248;2023-08-08T08:58:59;99985.66;;;20.19;71.65
2549;BME280;1284;53.520;10.248;2023-08-08T09:01:25;99978.53;;;20.22;71.83
2549;BME280;1284;53.520;10.248;2023-08-08T09:03:52;99978.25;;;20.32;70.22
2549;BME280;1284;53.520;10.248;2023-08-08T09:06:18;99975.25;;;20.27;68.61
2549;BME280;1284;53.520;10.248;2023-08-08T09:08:46;99962.03;;;20.38;68.64
2549;BME280;1284;53.520;10.248;2023-08-08T09:11:12;99972.84;;;20.66;68.75
2549;BME280;1284;53.520;10.248;2023-08-08T09:13:39;99975.53;;;21.04;68.69
2549;BME280;1284;53.520;10.248;2023-08-08T09:16:08;99974.66;;;21.41;68.36
2549;BME280;1284;53.520;10.248;2023-08-08T09:18:35;99971.63;;;21.83;66.36
2549;BME280;1284;53.520;10.248;2023-08-08T09:21:04;99960.81;;;22.10;62.54
2549;BME280;1284;53.520;10.248;2023-08-08T09:26:16;99973.44;;;22.07;61.78
2549;BME280;1284;53.520;10.248;2023-08-08T09:28:42;99983.00;;;22.03;nan
2549;BME280;1284;53.520;10.248;2023-08-08T09:31:07;99986.44;;;21.85;59.99
2549;BME280;1284;53.520;10.248;2023-08-08T09:33:33;99986.72;;;21.66;60.04
2549;BME280;1284;53.520;10.248;2023-08-08T09:35:58;99985.56;;;21.54;60.90
2549;BME280;1284;53.520;10.248;2023-08-08T09:38:24;99980.66;;;21.49;61.73
2549;BME280;1284;53.520;10.248;2023-08-08T09:40:50;99983.06;;;21.47;61.38
2549;BME280;1284;53.520;10.248;2023-08-08T09:43:16;99991.34;;;21.34;60.35
2549;BME280;1284;53.520;10.248;2023-08-08T09:45:41;99982.84;;;21.20;60.66
2549;BME280;1284;53.520;10.248;2023-08-08T09:48:07;99978.25;;;21.17;62.27
2549;BME280;1284;53.520;10.248;2023-08-08T09:50:33;99980.94;;;21.29;62.45
2549;BME280;1284;53.520;10.248;2023-08-08T09:53:03;99969.19;;;21.41;62.72
2549;BME280;1284;53.520;10.248;2023-08-08T09:55:30;99986.78;;;21.53;62.13
2549;BME280;1284;53.520;10.248;2023-08-08T09:57:57;99979.59;;;21.46;60.91
2549;BME280;1284;53.520;10.248;2023-08-08T10:00:24;99974.25;;;21.30;60.71
2549;BME280;1284;53.520;10.248;2023-08-08T10:02:53;99973.78;;;21.10;61.95
2549;BME280;1284;53.520;10.248;2023-08-08T10:05:19;99963.50;;;21.02;62.20
2549;BME280;1284;53.520;10.248;2023-08-08T10:07:45;99973.38;;;20.74;63.02
2549;BME280;1284;53.520;10.248;2023-08-08T10:10:10;99985.75;;;20.66;65.21
2549;BME280;1284;53.520;10.248;2023-08-08T10:12:40;99984.91;;;20.69;66.98
2549;BME280;1284;53.520;10.248;2023-08-08T10:15:07;99990.91;;;20.64;68.17
2549;BME280;1284;53.520;10.248;2023-08-08T10:17:40;99990.69;;;20.58;67.46
2549;BME280;1284;53.520;10.248;2023-08-08T10:20:08;99996.28;;;20.55;67.59
2549;BME280;1284;53.520;10.248;2023-08-08T10:22:37;99982.59;;;20.42;66.39
2549;BME280;1284;53.520;10.248;2023-08-08T10:25:07;99989.41;;;20.38;68.87
2549;BME280;1284;53.520;10.248;2023-08-08T10:27:34;99996.28;;;20.30;70.12
2549;BME280;1284;53.520;10.248;2023-08-08T10:30:04;100008.53;;;20.25;71.28
2549;BME280;1284;53.520;10.248;2023-08-08T10:32:45;100006.16;;;20.11;72.64
2549;BME280;1284;53.520;10.248;2023-08-08T10:35:14;100003.53;;;19.95;74.35
2549;BME280;1284;53.520;10.248;2023-08-08T10:37:40;99996.16;;;19.79;75.29
2549;BME280;1284;53.520;10.248;2023-08-08T10:40:07;99991.69;;;19.57;76.51
2549;BME280;1284;53.520;10.248;2023-08-08T10:42:42;100000.66;;;19.57;76.90
2549;BME280;1284;53.520;10.248;2023-08-08T10:45:10;99989.97;;;19.34;79.13
2549;BME280;1284;53.520;10.248;2023-08-08T10:47:37;99995.00;;;19.36;80.44
2549;BME280;1284;53.520;10.248;2023-08-08T10:55:57;99972.28;;;19.39;82.59
2549;BME280;1284;53.520;10.248;2023-08-08T10:58:15;99982.25;;;19.74;83.47
2549;BME280;1284;53.520;10.248;2023-08-08T11:00:44;99989.19;;;20.04;84.37
2549;BME280;1284;53.520;10.248;2023-08-08T11:05:37;99983.88;;;21.01;81.93
2549;BME280;1284;53.520;10.248;2023-08-08T11:08:06;99981.69;;;21.42;78.63
2549;BME280;1284;53.520;10.248;2023-08-08T11:10:36;99971.75;;;21.58;76.55
2549;BME280;1284;53.520;10.248;2023-08-08T11:13:04;99971.09;;;21.53;75.10
2549;BME280;1284;53.520;10.248;2023-08-08T11:15:32;99971.91;;;21.41;73.79
2549;BME280;1284;53.520;10.248;2023-08-08T11:17:59;99971.41;;;21.34;73.44
2549;BME280;1284;53.520;10.248;2023-08-08T11:20:25;99976.19;;;20.96;74.10
2549;BME280;1284;53.520;10.248;2023-08-08T11:22:55;99972.16;;;20.75;75.70
2549;BME280;1284;53.520;10.248;2023-08-08T11:25:22;99975.91;;;20.68;76.69
2549;BME280;1284;53.520;10.248;2023-08-08T11:27:53;99979.97;;;20.64;76.80
2549;BME280;1284;53.520;10.248;2023-08-08T11:30:20;99987.97;;;20.71;76.21
2549;BME280;1284;53.520;10.248;2023-08-08T11:32:47;99985.47;;;20.51;76.65
2549;BME280;1284;53.520;10.248;2023-08-08T11:35:22;99981.28;;;20.47;75.78
2549;BME280;1284;53.520;10.248;2023-08-08T11:37:50;99995.72;;;20.35;75.52
2549;BME280;1284;53.520;10.248;2023-08-08T11:40:17;99987.19;;;20.20;75.79
2549;BME280;1284;53.520;10.248;2023-08-08T11:42:43;99991.63;;;20.14;76.12
2549;BME280;1284;53.520;10.248;2023-08-08T11:45:11;99976.63;;;20.06;76.18
2549;BME280;1284;53.520;10.248;2023-08-08T11:47:37;99972.56;;;19.86;77.06
2549;BME280;1284;53.520;10.248;2023-08-08T11:50:05;99988.47;;;19.74;78.07
2549;BME280;1284;53.520;10.248;2023-08-08T11:52:32;99980.59;;;19.64;79.36
2549;BME280;1284;53.520;10.248;2023-08-08T11:55:01;99977.28;;;19.56;80.70
2549;BME280;1284;53.520;10.248;2023-08-08T11:57:27;99982.72;;;19.85;81.75
2549;BME280;1284;53.520;10.248;2023-08-08T11:59:56;99969.94;;;19.95;82.27
2549;BME280;1284;53.520;10.248;2023-08-08T12:02:23;99991.41;;;20.09;81.67
2549;BME280;1284;53.520;10.248;2023-08-08T12:04:49;99997.63;;;20.09;80.31
2549;BME280;1284;53.520;10.248;2023-08-08T12:07:16;99991.59;;;20.02;80.02
2549;BME280;1284;53.520;10.248;2023-08-08T12:09:42;99995.75;;;19.94;79.77
2549;BME280;1284;53.520;10.248;2023-08-08T12:12:08;100001.06;;;19.85;80.95
2549;BME280;1284;53.520;10.248;2023-08-08T12:14:42;99996.09;;;20.08;81.30
2549;BME280;1284;53.520;10.248;2023-08-08T12:17:08;99981.38;;;20.31;81.37
2549;BME280;1284;53.520;10.248;2023-08-08T12:19:34;99982.81;;;20.48;81.27
2549;BME280;1284;53.520;10.248;2023-08-08T12:21:59;99971.44;;;20.75;80.29
2549;BME280;1284;53.520;10.248;2023-08-08T12:24:25;99974.81;;;20.79;79.23
2549;BME280;1284;53.520;10.248;2023-08-08T12:26:51;99970.44;;;20.68;77.97
2549;BME280;1284;53.520;10.248;2023-08-08T12:29:16;99970.34;;;20.59;77.71
2549;BME280;1284;53.520;10.248;2023-08-08T12:31:41;99963.53;;;20.64;76.74
2549;BME280;1284;53.520;10.248;2023-08-08T12:34:07;99949.56;;;20.49;77.02
2549;BME280;1284;53.520;10.248;2023-08-08T12:36:33;99948.66;;;20.52;77.78
2549;BME280;1284;53.520;10.248;2023-08-08T12:38:58;99949.00;;;20.54;77.49
2549;BME280;1284;53.520;10.248;2023-08-08T12:44:09;99945.25;;;20.74;76.97
2549;BME280;1284;53.520;10.248;2023-08-08T12:46:35;99946.25;;;20.67;76.34
2549;BME280;1284;53.520;10.248;2023-08-08T12:49:00;99944.19;;;20.71;77.00
2549;BME280;1284;53.520;10.248;2023-08-08T12:51:26;99938.09;;;20.89;75.59
2549;BME280;1284;53.520;10.248;2023-08-08T12:53:51;99941.06;;;20.94;75.85
2549;BME280;1284;53.520;10.248;2023-08-08T12:56:17;99951.00;;;21.01;75.53
2549;BME280;1284;53.520;10.248;2023-08-08T12:58:42;99946.31;;;21.01;74.24
2549;BME280;1284;53.520;10.248;2023-08-08T13:01:08;99947.47;;;21.13;74.76
2549;BME280;1284;53.520;10.248;2023-08-08T13:03:33;99952.59;;;21.23;73.20
2549;BME280;1284;53.520;10.248;2023-08-08T13:06:00;99947.75;;;21.27;73.77
2549;BME280;1284;53.520;10.248;2023-08-08T13:11:11;99941.91;;;21.38;71.64
2549;BME280;1284;53.520;10.248;2023-08-08T13:13:36;99943.97;;;21.46;71.60
2549;BME280;1284;53.520;10.248;2023-08-08T13:16:04;99929.09;;;21.56;70.50
2549;BME280;1284;53.520;10.248;2023-08-08T13:18:30;99937.69;;;21.46;69.96
2549;BME280;1284;53.520;10.248;2023-08-08T13:20:55;99960.88;;;21.32;70.00
2549;BME280;1284;53.520;10.248;2023-08-08T13:23:21;99966.72;;;21.22;72.83
2549;BME280;1284;53.520;10.248;2023-08-08T13:25:46;99966.78;;;21.09;76.28
2549;BME280;1284;53.520;10.248;2023-08-08T13:28:12;99959.44;;;21.06;78.09
2549;BME280;1284;53.520;10.248;2023-08-08T13:30:37;99956.38;;;20.92;76.20